createdAt,value
2024-02-28T00:00:28.323Z,1.33
2024-02-28T00:05:30.374Z,1.25
2024-02-28T00:10:33.570Z,1.20
2024-02-28T00:15:35.479Z,1.52
2024-02-28T00:20:37.340Z,1.70
2024-02-28T00:25:39.303Z,1.35
2024-02-28T00:30:42.434Z,1.58
2024-02-28T00:35:44.318Z,1.25
2024-02-28T00:40:46.325Z,1.40
2024-02-28T00:45:48.260Z,1.15
2024-02-28T00:50:50.191Z,1.55
2024-02-28T00:55:53.102Z,1.08
2024-02-28T01:00:55.159Z,1.30
2024-02-28T01:05:57.183Z,0.88
2024-02-28T01:11:00.840Z,0.90
2024-02-28T01:16:03.150Z,1.45
2024-02-28T01:21:05.079Z,1.40
2024-02-28T01:26:07.382Z,1.35
2024-02-28T01:31:09.368Z,1.63
2024-02-28T01:36:13.178Z,1.17
2024-02-28T01:41:15.086Z,1.40
2024-02-28T01:46:28.064Z,1.00
2024-02-28T01:51:30.227Z,2.00
2024-02-28T01:56:32.739Z,2.05
2024-02-28T02:01:34.696Z,1.60
2024-02-28T02:06:40.001Z,1.55
2024-02-28T02:11:42.070Z,1.25
2024-02-28T02:16:46.179Z,1.50
2024-02-28T02:21:55.353Z,1.50
2024-02-28T02:26:59.798Z,2.00
2024-02-28T02:32:02.524Z,1.60
2024-02-28T02:37:06.175Z,1.58
2024-02-28T02:42:08.141Z,1.73
2024-02-28T02:47:10.316Z,2.30
2024-02-28T02:52:12.358Z,1.90
2024-02-28T02:57:14.285Z,1.80
2024-02-28T03:02:16.320Z,1.52
2024-02-28T03:07:18.253Z,2.00
2024-02-28T03:12:20.199Z,1.73
2024-02-28T03:17:25.286Z,1.38
2024-02-28T03:22:27.948Z,2.03
2024-02-28T03:27:29.978Z,1.75
2024-02-28T03:32:32.444Z,1.50
2024-02-28T03:37:34.345Z,1.70
2024-02-28T03:42:36.252Z,1.85
2024-02-28T03:47:38.364Z,1.20
2024-02-28T03:52:40.374Z,0.80
2024-02-28T03:57:42.331Z,1.13
2024-02-28T04:02:44.315Z,0.95
2024-02-28T04:07:46.497Z,2.05
2024-02-28T04:12:48.670Z,1.95
2024-02-28T04:17:50.709Z,1.55
2024-02-28T04:22:52.656Z,2.03
2024-02-28T04:27:54.697Z,2.00
2024-02-28T04:32:56.708Z,2.67
2024-02-28T04:37:58.718Z,1.60
2024-02-28T04:43:00.806Z,2.22
2024-02-28T04:48:02.984Z,1.55
2024-02-28T04:53:05.086Z,1.70
2024-02-28T04:58:07.023Z,2.47
2024-02-28T05:03:08.990Z,1.58
2024-02-28T05:08:10.938Z,2.22
2024-02-28T05:13:12.944Z,2.08
2024-02-28T05:18:14.975Z,1.83
2024-02-28T05:23:17.001Z,1.80
2024-02-28T05:28:18.874Z,1.70
2024-02-28T05:33:20.851Z,1.65
2024-02-28T05:38:25.622Z,1.33
2024-02-28T05:43:28.592Z,2.53
2024-02-28T05:48:30.456Z,2.38
2024-02-28T05:53:41.972Z,3.58
2024-02-28T05:58:48.706Z,3.85
2024-02-28T06:03:50.721Z,4.35
2024-02-28T06:08:52.827Z,4.70
2024-02-28T06:13:54.825Z,2.88
2024-02-28T06:18:56.797Z,5.35
2024-02-28T06:23:58.777Z,4.63
2024-02-28T06:29:03.051Z,4.03
2024-02-28T06:34:05.222Z,5.88
2024-02-28T06:39:07.216Z,2.10
2024-02-28T06:44:09.098Z,5.72
2024-02-28T06:49:11.069Z,6.93
2024-02-28T06:54:13.232Z,6.20
2024-02-28T06:59:15.099Z,7.28
2024-02-28T07:04:17.021Z,5.15
2024-02-28T07:09:18.968Z,2.20
2024-02-28T07:14:21.783Z,4.35
2024-02-28T07:19:23.782Z,5.55
2024-02-28T07:24:25.649Z,7.18
2024-02-28T07:29:27.589Z,6.45
2024-02-28T07:34:31.799Z,6.22
2024-02-28T07:39:33.835Z,4.85
2024-02-28T07:44:35.770Z,7.45
2024-02-28T07:49:38.480Z,7.13
2024-02-28T07:54:44.390Z,7.18
2024-02-28T07:59:46.330Z,8.38
2024-02-28T08:04:48.257Z,7.18
2024-02-28T08:09:50.283Z,7.28
2024-02-28T08:14:52.203Z,7.00
2024-02-28T08:19:54.118Z,7.07
2024-02-28T08:24:56.050Z,7.32
2024-02-28T08:29:57.941Z,7.57
2024-02-28T08:35:01.686Z,7.90
2024-02-28T08:40:04.170Z,6.57
2024-02-28T08:45:07.133Z,9.00
2024-02-28T08:50:09.320Z,7.75
2024-02-28T08:55:11.508Z,7.32
2024-02-28T09:00:14.254Z,7.68
2024-02-28T09:05:16.248Z,7.80
2024-02-28T09:10:22.450Z,8.88
2024-02-28T09:15:24.615Z,8.07
2024-02-28T09:20:27.007Z,7.15
2024-02-28T09:25:29.382Z,8.05
2024-02-28T09:30:39.771Z,8.48
2024-02-28T09:35:47.623Z,7.32
2024-02-28T09:40:50.485Z,7.65
2024-02-28T09:45:53.320Z,6.90
2024-02-28T09:50:56.965Z,7.78
2024-02-28T09:55:59.759Z,7.47
2024-02-28T10:01:07.043Z,7.35
2024-02-28T10:06:12.622Z,8.23
2024-02-28T10:11:25.102Z,7.63
2024-02-28T10:16:28.209Z,7.82
2024-02-28T10:21:34.004Z,7.32
2024-02-28T10:26:47.006Z,6.30
2024-02-28T10:31:48.905Z,6.90
2024-02-28T10:36:51.365Z,6.60
2024-02-28T10:41:55.074Z,7.93
2024-02-28T10:46:57.328Z,7.15
2024-02-28T10:52:00.511Z,6.68
2024-02-28T10:57:03.784Z,6.22
2024-02-28T11:02:05.931Z,7.85
2024-02-28T11:07:08.664Z,6.68
2024-02-28T11:12:31.419Z,5.30
2024-02-28T11:17:34.719Z,6.97
2024-02-28T11:22:38.765Z,7.78
2024-02-28T11:27:48.134Z,7.90
2024-02-28T11:32:53.769Z,8.60
2024-02-28T11:37:59.710Z,6.85
2024-02-28T11:43:04.858Z,3.75
2024-02-28T11:48:07.767Z,7.35
2024-02-28T11:53:10.013Z,6.68
2024-02-28T11:58:11.954Z,8.32
2024-02-28T12:03:13.848Z,4.65
2024-02-28T12:08:15.866Z,8.23
2024-02-28T12:13:21.690Z,6.85
2024-02-28T12:18:23.629Z,7.78
2024-02-28T12:23:25.561Z,8.18
2024-02-28T12:28:27.530Z,6.90
2024-02-28T12:33:29.412Z,7.00
2024-02-28T12:38:32.193Z,7.32
2024-02-28T12:43:34.258Z,7.82
2024-02-28T12:48:40.422Z,7.22
2024-02-28T12:53:42.370Z,7.47
2024-02-28T12:58:44.846Z,7.93
2024-02-28T13:03:46.750Z,8.10
2024-02-28T13:08:52.880Z,8.15
2024-02-28T13:13:55.204Z,7.85
2024-02-28T13:18:57.685Z,4.35
2024-02-28T13:24:00.417Z,7.90
2024-02-28T13:29:02.356Z,7.13
2024-02-28T13:34:04.571Z,7.68
2024-02-28T13:39:07.080Z,7.85
2024-02-28T13:44:10.435Z,6.75
2024-02-28T13:49:14.380Z,6.13
2024-02-28T13:54:16.737Z,6.10
2024-02-28T13:59:18.664Z,6.30
2024-02-28T14:04:20.965Z,5.57
2024-02-28T14:09:22.923Z,5.47
2024-02-28T14:14:25.098Z,7.55
2024-02-28T14:19:26.988Z,6.90
2024-02-28T14:24:32.564Z,5.95
2024-02-28T14:29:34.472Z,6.18
2024-02-28T14:34:36.847Z,7.63
2024-02-28T14:39:38.921Z,6.85
2024-02-28T14:44:41.116Z,3.00
2024-02-28T14:49:43.166Z,5.28
2024-02-28T14:54:46.941Z,4.25
2024-02-28T14:59:48.876Z,3.20
2024-02-28T15:04:50.989Z,7.05
2024-02-28T15:09:52.986Z,6.85
2024-02-28T15:14:56.434Z,10.70
2024-02-28T15:19:58.835Z,10.32
2024-02-28T15:25:00.962Z,6.80
2024-02-28T15:30:05.738Z,9.30
2024-02-28T15:35:09.582Z,10.07
2024-02-28T15:40:12.512Z,7.65
2024-02-28T15:45:16.748Z,9.00
2024-02-28T15:50:19.791Z,7.95
2024-02-28T15:55:22.363Z,6.85
2024-02-28T16:00:24.344Z,8.30
2024-02-28T16:05:29.053Z,7.90
2024-02-28T16:10:33.040Z,7.53
2024-02-28T16:15:35.646Z,9.05
2024-02-28T16:20:37.688Z,10.38
2024-02-28T16:25:41.546Z,9.93
2024-02-28T16:30:47.854Z,7.60
2024-02-28T16:35:51.017Z,8.45
2024-02-28T16:40:56.270Z,8.25
2024-02-28T16:45:59.601Z,7.05
2024-02-28T16:51:02.449Z,9.38
2024-02-28T16:56:04.693Z,8.00
2024-02-28T17:01:09.242Z,6.65
2024-02-28T17:06:11.464Z,8.82
2024-02-28T17:11:14.128Z,7.95
2024-02-28T17:16:18.027Z,7.35
2024-02-28T17:21:20.565Z,8.07
2024-02-28T17:26:22.459Z,8.90
2024-02-28T17:31:24.431Z,5.40
2024-02-28T17:36:26.501Z,8.13
2024-02-28T17:41:29.433Z,5.82
2024-02-28T17:46:33.999Z,6.18
2024-02-28T17:51:37.286Z,7.28
2024-02-28T17:56:46.963Z,6.82
2024-02-28T18:01:49.232Z,6.00
2024-02-28T18:06:51.590Z,6.65
2024-02-28T18:11:53.998Z,7.28
2024-02-28T18:16:56.370Z,6.88
2024-02-28T18:21:58.618Z,7.90
2024-02-28T18:27:00.497Z,7.13
2024-02-28T18:32:03.270Z,4.35
2024-02-28T18:37:05.532Z,7.10
2024-02-28T18:42:07.651Z,6.93
2024-02-28T18:47:09.514Z,6.95
2024-02-28T18:52:11.477Z,6.18
2024-02-28T18:57:13.411Z,7.35
2024-02-28T19:02:15.370Z,7.28
2024-02-28T19:07:17.971Z,4.20
2024-02-28T19:12:19.909Z,6.68
2024-02-28T19:17:22.842Z,6.70
2024-02-28T19:22:24.910Z,6.03
2024-02-28T19:27:26.905Z,5.18
2024-02-28T19:32:28.963Z,6.95
2024-02-28T19:37:30.881Z,5.70
2024-02-28T19:42:33.547Z,6.50
2024-02-28T19:47:36.328Z,5.95
2024-02-28T19:52:39.036Z,5.40
2024-02-28T19:57:40.998Z,6.93
2024-02-28T20:02:42.936Z,5.63
2024-02-28T20:07:44.869Z,4.90
2024-02-28T20:12:46.949Z,5.35
2024-02-28T20:17:49.040Z,5.82
2024-02-28T20:22:51.034Z,4.63
2024-02-28T20:27:52.994Z,4.85
2024-02-28T20:32:55.081Z,4.63
2024-02-28T20:37:57.737Z,4.80
2024-02-28T20:43:01.754Z,4.72
2024-02-28T20:48:04.390Z,4.18
2024-02-28T20:53:07.230Z,2.67
2024-02-28T20:58:10.464Z,4.78
2024-02-28T21:03:13.985Z,3.75
2024-02-28T21:08:16.405Z,3.58
2024-02-28T21:13:18.423Z,4.25
2024-02-28T21:18:21.237Z,4.20
2024-02-28T21:23:23.161Z,4.22
2024-02-28T21:28:25.148Z,1.92
2024-02-28T21:33:29.076Z,5.60
2024-02-28T21:38:31.115Z,4.93
2024-02-28T21:43:33.576Z,1.98
2024-02-28T21:48:38.535Z,4.82
2024-02-28T21:53:40.489Z,5.13
2024-02-28T21:58:42.519Z,3.95
2024-02-28T22:03:45.543Z,5.13
2024-02-28T22:08:47.510Z,3.55
2024-02-28T22:13:49.481Z,4.53
2024-02-28T22:18:52.078Z,6.60
2024-02-28T22:23:54.049Z,5.47
2024-02-28T22:28:56.148Z,4.82
2024-02-28T22:33:58.129Z,4.45
2024-02-28T22:39:00.094Z,2.90
2024-02-28T22:44:02.308Z,3.60
2024-02-28T22:49:05.397Z,5.70
2024-02-28T22:54:10.394Z,2.38
2024-02-28T22:59:13.182Z,5.38
2024-02-28T23:04:17.108Z,0.28
2024-02-28T23:09:19.132Z,5.75
2024-02-28T23:14:21.263Z,4.40
2024-02-28T23:19:23.215Z,4.78
2024-02-28T23:24:25.127Z,3.85
2024-02-28T23:29:27.154Z,4.47
2024-02-28T23:34:29.899Z,3.92
2024-02-28T23:39:31.806Z,5.72
2024-02-28T23:44:33.727Z,2.17
2024-02-28T23:49:35.572Z,4.25
2024-02-28T23:54:38.034Z,5.13
2024-02-28T23:59:42.477Z,4.60
